sensor_id;sensor_type;location;lat;lon;timestamp;P1;durP1;ratioP1;P2;durP2;ratioP2
71125;SDS011;58785;55.566;38.058;2022-08-19T00:01:42;6.95;;;3.45;;
71125;SDS011;58785;55.566;38.058;2022-08-19T00:04:09;8.80;;;3.63;;
71125;SDS011;58785;55.566;38.058;2022-08-19T00:06:37;9.13;;;3.90;;
71125;SDS011;58785;55.566;38.058;2022-08-19T00:09:04;7.20;;;3.75;;
71125;SDS011;58785;55.566;38.058;2022-08-19T00:11:32;8.48;;;4.10;;
71125;SDS011;58785;55.566;38.058;2022-08-19T00:14:03;11.70;;;4.20;;
71125;SDS011;58785;55.566;38.058;2022-08-19T00:16:30;9.13;;;3.85;;
71125;SDS011;58785;55.566;38.058;2022-08-19T00:18:55;8.93;;;3.83;;
71125;SDS011;58785;55.566;38.058;2022-08-19T00:21:25;10.98;;;3.80;;
71125;SDS011;58785;55.566;38.058;2022-08-19T00:23:52;6.93;;;4.10;;
71125;SDS011;58785;55.566;38.058;2022-08-19T00:26:18;7.18;;;3.30;;
71125;SDS011;58785;55.566;38.058;2022-08-19T00:28:44;9.00;;;3.75;;
71125;SDS011;58785;55.566;38.058;2022-08-19T00:31:11;7.20;;;3.47;;
71125;SDS011;58785;55.566;38.058;2022-08-19T00:33:36;6.70;;;3.30;;
71125;SDS011;58785;55.566;38.058;2022-08-19T00:36:04;11.93;;;3.83;;
71125;SDS011;58785;55.566;38.058;2022-08-19T00:38:31;9.13;;;3.83;;
71125;SDS011;58785;55.566;38.058;2022-08-19T00:40:57;7.38;;;3.38;;
71125;SDS011;58785;55.566;38.058;2022-08-19T00:43:24;7.18;;;3.20;;
71125;SDS011;58785;55.566;38.058;2022-08-19T00:45:51;13.60;;;3.67;;
71125;SDS011;58785;55.566;38.058;2022-08-19T00:48:17;7.07;;;3.47;;
71125;SDS011;58785;55.566;38.058;2022-08-19T00:50:45;8.93;;;3.55;;
71125;SDS011;58785;55.566;38.058;2022-08-19T00:53:13;8.85;;;3.60;;
71125;SDS011;58785;55.566;38.058;2022-08-19T00:55:44;8.77;;;3.60;;
71125;SDS011;58785;55.566;38.058;2022-08-19T00:58:14;9.00;;;3.40;;
71125;SDS011;58785;55.566;38.058;2022-08-19T01:00:42;7.80;;;3.00;;
71125;SDS011;58785;55.566;38.058;2022-08-19T01:03:10;7.63;;;3.55;;
71125;SDS011;58785;55.566;38.058;2022-08-19T01:05:37;9.85;;;3.17;;
71125;SDS011;58785;55.566;38.058;2022-08-19T01:08:06;6.47;;;3.00;;
71125;SDS011;58785;55.566;38.058;2022-08-19T01:10:37;10.23;;;3.05;;
71125;SDS011;58785;55.566;38.058;2022-08-19T01:13:05;6.45;;;3.15;;
71125;SDS011;58785;55.566;38.058;2022-08-19T01:15:33;6.97;;;3.30;;
71125;SDS011;58785;55.566;38.058;2022-08-19T01:18:07;9.23;;;3.13;;
71125;SDS011;58785;55.566;38.058;2022-08-19T01:20:34;9.37;;;2.87;;
71125;SDS011;58785;55.566;38.058;2022-08-19T01:23:01;7.30;;;3.30;;
71125;SDS011;58785;55.566;38.058;2022-08-19T01:25:29;8.43;;;3.25;;
71125;SDS011;58785;55.566;38.058;2022-08-19T01:27:58;11.00;;;2.90;;
71125;SDS011;58785;55.566;38.058;2022-08-19T01:30:28;6.43;;;2.55;;
71125;SDS011;58785;55.566;38.058;2022-08-19T01:32:57;8.43;;;2.60;;
71125;SDS011;58785;55.566;38.058;2022-08-19T01:35:25;6.82;;;3.13;;
71125;SDS011;58785;55.566;38.058;2022-08-19T01:37:57;6.95;;;2.70;;
71125;SDS011;58785;55.566;38.058;2022-08-19T01:40:26;7.85;;;3.40;;
71125;SDS011;58785;55.566;38.058;2022-08-19T01:42:57;8.30;;;2.75;;
71125;SDS011;58785;55.566;38.058;2022-08-19T01:45:26;7.00;;;2.77;;
71125;SDS011;58785;55.566;38.058;2022-08-19T01:47:53;6.00;;;2.92;;
71125;SDS011;58785;55.566;38.058;2022-08-19T01:50:20;6.18;;;3.10;;
71125;SDS011;58785;55.566;38.058;2022-08-19T01:52:46;7.82;;;3.10;;
71125;SDS011;58785;55.566;38.058;2022-08-19T01:55:18;5.88;;;2.80;;
71125;SDS011;58785;55.566;38.058;2022-08-19T01:57:49;6.57;;;2.93;;
71125;SDS011;58785;55.566;38.058;2022-08-19T02:00:18;9.32;;;3.00;;
71125;SDS011;58785;55.566;38.058;2022-08-19T02:02:45;8.63;;;2.60;;
71125;SDS011;58785;55.566;38.058;2022-08-19T02:05:11;6.70;;;2.77;;
71125;SDS011;58785;55.566;38.058;2022-08-19T02:07:38;6.32;;;2.63;;
71125;SDS011;58785;55.566;38.058;2022-08-19T02:10:06;9.50;;;3.00;;
71125;SDS011;58785;55.566;38.058;2022-08-19T02:12:35;7.70;;;2.97;;
71125;SDS011;58785;55.566;38.058;2022-08-19T02:15:01;6.03;;;2.37;;
71125;SDS011;58785;55.566;38.058;2022-08-19T02:17:29;8.45;;;2.40;;
71125;SDS011;58785;55.566;38.058;2022-08-19T02:19:57;9.93;;;2.80;;
71125;SDS011;58785;55.566;38.058;2022-08-19T02:22:24;9.48;;;2.88;;
71125;SDS011;58785;55.566;38.058;2022-08-19T02:24:53;6.60;;;2.77;;
71125;SDS011;58785;55.566;38.058;2022-08-19T02:27:19;7.55;;;2.85;;
71125;SDS011;58785;55.566;38.058;2022-08-19T02:29:46;6.45;;;2.63;;
71125;SDS011;58785;55.566;38.058;2022-08-19T02:32:12;6.85;;;3.05;;
71125;SDS011;58785;55.566;38.058;2022-08-19T02:34:38;6.07;;;2.67;;
71125;SDS011;58785;55.566;38.058;2022-08-19T02:37:04;7.65;;;2.92;;
71125;SDS011;58785;55.566;38.058;2022-08-19T02:39:30;7.07;;;3.15;;
71125;SDS011;58785;55.566;38.058;2022-08-19T02:41:58;8.23;;;3.40;;
71125;SDS011;58785;55.566;38.058;2022-08-19T02:44:24;10.98;;;2.70;;
71125;SDS011;58785;55.566;38.058;2022-08-19T02:46:50;7.10;;;2.88;;
71125;SDS011;58785;55.566;38.058;2022-08-19T02:49:16;8.97;;;3.40;;
71125;SDS011;58785;55.566;38.058;2022-08-19T02:51:42;7.18;;;2.90;;
71125;SDS011;58785;55.566;38.058;2022-08-19T02:54:09;7.70;;;2.92;;
71125;SDS011;58785;55.566;38.058;2022-08-19T02:56:38;9.10;;;3.40;;
71125;SDS011;58785;55.566;38.058;2022-08-19T02:59:05;10.25;;;3.20;;
71125;SDS011;58785;55.566;38.058;2022-08-19T03:01:35;8.82;;;3.28;;
71125;SDS011;58785;55.566;38.058;2022-08-19T03:04:02;7.13;;;2.97;;
71125;SDS011;58785;55.566;38.058;2022-08-19T03:06:30;12.75;;;3.00;;
71125;SDS011;58785;55.566;38.058;2022-08-19T03:08:56;6.17;;;2.80;;
71125;SDS011;58785;55.566;38.058;2022-08-19T03:11:23;5.80;;;2.97;;
71125;SDS011;58785;55.566;38.058;2022-08-19T03:13:51;9.65;;;3.10;;
71125;SDS011;58785;55.566;38.058;2022-08-19T03:16:20;6.70;;;3.65;;
71125;SDS011;58785;55.566;38.058;2022-08-19T03:18:48;9.30;;;3.20;;
71125;SDS011;58785;55.566;38.058;2022-08-19T03:21:15;7.03;;;2.90;;
71125;SDS011;58785;55.566;38.058;2022-08-19T03:23:43;6.88;;;3.10;;
71125;SDS011;58785;55.566;38.058;2022-08-19T03:26:09;8.93;;;3.20;;
71125;SDS011;58785;55.566;38.058;2022-08-19T03:28:34;6.35;;;2.72;;
71125;SDS011;58785;55.566;38.058;2022-08-19T03:31:01;6.97;;;3.03;;
71125;SDS011;58785;55.566;38.058;2022-08-19T03:33:35;6.70;;;3.00;;
71125;SDS011;58785;55.566;38.058;2022-08-19T03:36:06;6.38;;;3.03;;
71125;SDS011;58785;55.566;38.058;2022-08-19T03:38:34;9.03;;;3.40;;
71125;SDS011;58785;55.566;38.058;2022-08-19T03:41:03;6.70;;;3.05;;
71125;SDS011;58785;55.566;38.058;2022-08-19T03:43:35;11.55;;;3.20;;
71125;SDS011;58785;55.566;38.058;2022-08-19T03:46:03;9.07;;;3.13;;
71125;SDS011;58785;55.566;38.058;2022-08-19T03:48:40;9.55;;;3.40;;
71125;SDS011;58785;55.566;38.058;2022-08-19T03:51:06;8.10;;;3.50;;
71125;SDS011;58785;55.566;38.058;2022-08-19T03:53:34;8.38;;;2.95;;
71125;SDS011;58785;55.566;38.058;2022-08-19T03:56:00;8.05;;;3.50;;
71125;SDS011;58785;55.566;38.058;2022-08-19T03:58:27;10.40;;;3.50;;
71125;SDS011;58785;55.566;38.058;2022-08-19T04:00:55;7.93;;;3.00;;
71125;SDS011;58785;55.566;38.058;2022-08-19T04:03:22;8.43;;;2.80;;
71125;SDS011;58785;55.566;38.058;2022-08-19T04:05:48;7.47;;;3.55;;
71125;SDS011;58785;55.566;38.058;2022-08-19T04:08:15;6.85;;;3.20;;
71125;SDS011;58785;55.566;38.058;2022-08-19T04:10:44;10.90;;;3.45;;
71125;SDS011;58785;55.566;38.058;2022-08-19T04:13:09;11.30;;;3.70;;
71125;SDS011;58785;55.566;38.058;2022-08-19T04:15:38;6.82;;;3.50;;
71125;SDS011;58785;55.566;38.058;2022-08-19T04:18:06;6.95;;;3.72;;
71125;SDS011;58785;55.566;38.058;2022-08-19T04:20:44;9.77;;;3.40;;
71125;SDS011;58785;55.566;38.058;2022-08-19T04:23:12;6.72;;;3.53;;
71125;SDS011;58785;55.566;38.058;2022-08-19T04:25:39;9.73;;;3.17;;
71125;SDS011;58785;55.566;38.058;2022-08-19T04:28:07;9.20;;;3.13;;
71125;SDS011;58785;55.566;38.058;2022-08-19T04:30:38;8.32;;;3.22;;
71125;SDS011;58785;55.566;38.058;2022-08-19T04:33:09;6.93;;;3.50;;
71125;SDS011;58785;55.566;38.058;2022-08-19T04:35:39;7.00;;;3.33;;
71125;SDS011;58785;55.566;38.058;2022-08-19T04:38:07;7.05;;;3.55;;
71125;SDS011;58785;55.566;38.058;2022-08-19T04:40:34;7.70;;;3.50;;
71125;SDS011;58785;55.566;38.058;2022-08-19T04:43:23;7.97;;;3.63;;
71125;SDS011;58785;55.566;38.058;2022-08-19T04:45:48;10.97;;;3.67;;
71125;SDS011;58785;55.566;38.058;2022-08-19T04:48:15;8.45;;;3.70;;
71125;SDS011;58785;55.566;38.058;2022-08-19T04:50:42;7.17;;;3.87;;
71125;SDS011;58785;55.566;38.058;2022-08-19T04:53:08;10.13;;;3.72;;
71125;SDS011;58785;55.566;38.058;2022-08-19T04:55:38;10.55;;;3.67;;
71125;SDS011;58785;55.566;38.058;2022-08-19T04:58:04;9.20;;;3.70;;
71125;SDS011;58785;55.566;38.058;2022-08-19T05:00:30;8.87;;;4.57;;
71125;SDS011;58785;55.566;38.058;2022-08-19T05:02:55;7.73;;;3.63;;
71125;SDS011;58785;55.566;38.058;2022-08-19T05:05:21;12.13;;;4.20;;
71125;SDS011;58785;55.566;38.058;2022-08-19T05:07:46;8.30;;;3.97;;
71125;SDS011;58785;55.566;38.058;2022-08-19T05:10:12;9.45;;;4.32;;
71125;SDS011;58785;55.566;38.058;2022-08-19T05:12:38;8.17;;;3.87;;
71125;SDS011;58785;55.566;38.058;2022-08-19T05:15:04;9.02;;;3.92;;
71125;SDS011;58785;55.566;38.058;2022-08-19T05:17:31;7.97;;;4.00;;
71125;SDS011;58785;55.566;38.058;2022-08-19T05:19:57;8.10;;;3.90;;
71125;SDS011;58785;55.566;38.058;2022-08-19T05:22:42;6.57;;;3.40;;
71125;SDS011;58785;55.566;38.058;2022-08-19T05:25:11;9.07;;;4.10;;
71125;SDS011;58785;55.566;38.058;2022-08-19T05:27:41;8.57;;;4.22;;
71125;SDS011;58785;55.566;38.058;2022-08-19T05:30:07;8.60;;;4.03;;
71125;SDS011;58785;55.566;38.058;2022-08-19T05:32:33;8.52;;;4.30;;
71125;SDS011;58785;55.566;38.058;2022-08-19T05:34:59;9.43;;;4.17;;
71125;SDS011;58785;55.566;38.058;2022-08-19T05:37:24;9.93;;;4.65;;
71125;SDS011;58785;55.566;38.058;2022-08-19T05:39:52;10.30;;;5.40;;
71125;SDS011;58785;55.566;38.058;2022-08-19T05:42:19;12.23;;;6.17;;
71125;SDS011;58785;55.566;38.058;2022-08-19T05:44:47;12.35;;;5.85;;
71125;SDS011;58785;55.566;38.058;2022-08-19T05:47:14;12.35;;;5.55;;
71125;SDS011;58785;55.566;38.058;2022-08-19T05:49:42;15.05;;;4.95;;
71125;SDS011;58785;55.566;38.058;2022-08-19T05:52:10;12.05;;;5.80;;
71125;SDS011;58785;55.566;38.058;2022-08-19T05:54:38;10.63;;;4.90;;
71125;SDS011;58785;55.566;38.058;2022-08-19T05:57:11;10.43;;;5.27;;
71125;SDS011;58785;55.566;38.058;2022-08-19T05:59:37;8.07;;;4.50;;
71125;SDS011;58785;55.566;38.058;2022-08-19T06:02:03;9.27;;;3.90;;
71125;SDS011;58785;55.566;38.058;2022-08-19T06:04:31;7.95;;;4.25;;
71125;SDS011;58785;55.566;38.058;2022-08-19T06:06:57;8.93;;;4.70;;
71125;SDS011;58785;55.566;38.058;2022-08-19T06:09:23;10.38;;;4.40;;
71125;SDS011;58785;55.566;38.058;2022-08-19T06:11:50;11.38;;;5.30;;
71125;SDS011;58785;55.566;38.058;2022-08-19T06:14:22;10.55;;;4.60;;
71125;SDS011;58785;55.566;38.058;2022-08-19T06:16:49;10.87;;;5.57;;
71125;SDS011;58785;55.566;38.058;2022-08-19T06:19:18;10.50;;;5.20;;
71125;SDS011;58785;55.566;38.058;2022-08-19T06:21:45;8.32;;;4.72;;
71125;SDS011;58785;55.566;38.058;2022-08-19T06:24:15;8.02;;;4.78;;
71125;SDS011;58785;55.566;38.058;2022-08-19T06:26:42;8.23;;;4.90;;
71125;SDS011;58785;55.566;38.058;2022-08-19T06:29:10;10.57;;;4.83;;
71125;SDS011;58785;55.566;38.058;2022-08-19T06:31:40;8.10;;;4.90;;
71125;SDS011;58785;55.566;38.058;2022-08-19T06:34:08;10.05;;;5.45;;
71125;SDS011;58785;55.566;38.058;2022-08-19T06:36:35;12.43;;;4.95;;
71125;SDS011;58785;55.566;38.058;2022-08-19T06:39:05;8.68;;;4.40;;
71125;SDS011;58785;55.566;38.058;2022-08-19T06:41:36;8.82;;;4.85;;
71125;SDS011;58785;55.566;38.058;2022-08-19T06:44:04;9.10;;;4.73;;
71125;SDS011;58785;55.566;38.058;2022-08-19T06:46:30;9.98;;;4.07;;
71125;SDS011;58785;55.566;38.058;2022-08-19T06:48:56;10.68;;;4.38;;
71125;SDS011;58785;55.566;38.058;2022-08-19T06:51:23;9.77;;;4.65;;
71125;SDS011;58785;55.566;38.058;2022-08-19T06:53:51;10.10;;;4.72;;
71125;SDS011;58785;55.566;38.058;2022-08-19T06:56:22;9.90;;;4.73;;
71125;SDS011;58785;55.566;38.058;2022-08-19T06:58:51;9.63;;;5.35;;
71125;SDS011;58785;55.566;38.058;2022-08-19T07:01:18;8.85;;;5.75;;
71125;SDS011;58785;55.566;38.058;2022-08-19T07:03:44;9.63;;;4.60;;
71125;SDS011;58785;55.566;38.058;2022-08-19T07:06:15;8.43;;;5.13;;
71125;SDS011;58785;55.566;38.058;2022-08-19T07:08:46;7.90;;;4.78;;
71125;SDS011;58785;55.566;38.058;2022-08-19T07:11:14;7.70;;;4.30;;
71125;SDS011;58785;55.566;38.058;2022-08-19T07:13:43;7.97;;;4.30;;
71125;SDS011;58785;55.566;38.058;2022-08-19T07:16:11;9.00;;;4.15;;
71125;SDS011;58785;55.566;38.058;2022-08-19T07:18:39;9.68;;;4.68;;
71125;SDS011;58785;55.566;38.058;2022-08-19T07:21:08;9.48;;;4.32;;
71125;SDS011;58785;55.566;38.058;2022-08-19T07:23:36;11.23;;;4.38;;
71125;SDS011;58785;55.566;38.058;2022-08-19T07:26:09;7.70;;;3.80;;
71125;SDS011;58785;55.566;38.058;2022-08-19T07:28:49;9.37;;;4.30;;
71125;SDS011;58785;55.566;38.058;2022-08-19T07:31:16;8.00;;;4.20;;
71125;SDS011;58785;55.566;38.058;2022-08-19T07:33:45;9.48;;;4.30;;
71125;SDS011;58785;55.566;38.058;2022-08-19T07:36:14;9.43;;;3.90;;
71125;SDS011;58785;55.566;38.058;2022-08-19T07:38:42;12.02;;;4.30;;
71125;SDS011;58785;55.566;38.058;2022-08-19T07:41:14;11.05;;;4.35;;
71125;SDS011;58785;55.566;38.058;2022-08-19T07:43:45;9.27;;;4.07;;
71125;SDS011;58785;55.566;38.058;2022-08-19T07:46:11;8.48;;;4.20;;
71125;SDS011;58785;55.566;38.058;2022-08-19T07:48:38;7.45;;;3.65;;
71125;SDS011;58785;55.566;38.058;2022-08-19T07:51:06;9.27;;;4.00;;
71125;SDS011;58785;55.566;38.058;2022-08-19T07:53:33;10.38;;;4.90;;
71125;SDS011;58785;55.566;38.058;2022-08-19T07:56:00;8.45;;;5.05;;
71125;SDS011;58785;55.566;38.058;2022-08-19T07:58:29;8.93;;;5.18;;
71125;SDS011;58785;55.566;38.058;2022-08-19T08:00:59;8.50;;;4.43;;
71125;SDS011;58785;55.566;38.058;2022-08-19T08:03:25;10.50;;;4.43;;
71125;SDS011;58785;55.566;38.058;2022-08-19T08:06:13;7.97;;;4.22;;
71125;SDS011;58785;55.566;38.058;2022-08-19T08:08:57;12.45;;;4.13;;
71125;SDS011;58785;55.566;38.058;2022-08-19T08:11:44;9.20;;;4.50;;
71125;SDS011;58785;55.566;38.058;2022-08-19T08:14:20;8.32;;;4.72;;
71125;SDS011;58785;55.566;38.058;2022-08-19T08:16:58;8.73;;;3.53;;
71125;SDS011;58785;55.566;38.058;2022-08-19T08:19:25;9.00;;;4.18;;
71125;SDS011;58785;55.566;38.058;2022-08-19T08:21:55;9.32;;;4.43;;
71125;SDS011;58785;55.566;38.058;2022-08-19T08:24:25;8.50;;;3.63;;
71125;SDS011;58785;55.566;38.058;2022-08-19T08:26:53;9.97;;;3.90;;
71125;SDS011;58785;55.566;38.058;2022-08-19T08:29:19;7.63;;;3.85;;
71125;SDS011;58785;55.566;38.058;2022-08-19T08:31:45;11.23;;;3.77;;
71125;SDS011;58785;55.566;38.058;2022-08-19T08:34:12;8.38;;;4.03;;
71125;SDS011;58785;55.566;38.058;2022-08-19T08:36:39;8.73;;;4.25;;
71125;SDS011;58785;55.566;38.058;2022-08-19T08:39:17;8.70;;;4.65;;
71125;SDS011;58785;55.566;38.058;2022-08-19T08:44:31;8.90;;;3.78;;
71125;SDS011;58785;55.566;38.058;2022-08-19T08:47:16;7.18;;;3.88;;
71125;SDS011;58785;55.566;38.058;2022-08-19T08:49:45;7.65;;;3.60;;
71125;SDS011;58785;55.566;38.058;2022-08-19T08:52:27;9.23;;;3.28;;
71125;SDS011;58785;55.566;38.058;2022-08-19T08:54:57;8.50;;;3.60;;
71125;SDS011;58785;55.566;38.058;2022-08-19T09:00:27;9.32;;;4.30;;
71125;SDS011;58785;55.566;38.058;2022-08-19T09:02:56;9.25;;;4.05;;
71125;SDS011;58785;55.566;38.058;2022-08-19T09:05:23;6.70;;;3.85;;
71125;SDS011;58785;55.566;38.058;2022-08-19T09:15:45;10.00;;;3.97;;
71125;SDS011;58785;55.566;38.058;2022-08-19T09:18:17;9.18;;;3.20;;
71125;SDS011;58785;55.566;38.058;2022-08-19T09:20:43;9.23;;;3.40;;
71125;SDS011;58785;55.566;38.058;2022-08-19T09:23:12;8.47;;;3.50;;
71125;SDS011;58785;55.566;38.058;2022-08-19T09:25:37;13.43;;;3.67;;
71125;SDS011;58785;55.566;38.058;2022-08-19T09:28:05;9.52;;;3.45;;
71125;SDS011;58785;55.566;38.058;2022-08-19T09:30:36;7.32;;;3.25;;
71125;SDS011;58785;55.566;38.058;2022-08-19T09:33:05;9.83;;;3.17;;
71125;SDS011;58785;55.566;38.058;2022-08-19T09:35:31;7.53;;;3.67;;
71125;SDS011;58785;55.566;38.058;2022-08-19T09:37:58;8.02;;;3.60;;
71125;SDS011;58785;55.566;38.058;2022-08-19T09:40:25;7.53;;;3.50;;
71125;SDS011;58785;55.566;38.058;2022-08-19T09:42:52;6.57;;;3.40;;
71125;SDS011;58785;55.566;38.058;2022-08-19T09:45:19;8.52;;;2.90;;
71125;SDS011;58785;55.566;38.058;2022-08-19T09:47:47;9.80;;;3.63;;
71125;SDS011;58785;55.566;38.058;2022-08-19T09:50:14;7.55;;;3.30;;
71125;SDS011;58785;55.566;38.058;2022-08-19T09:52:39;9.97;;;3.40;;
71125;SDS011;58785;55.566;38.058;2022-08-19T09:55:07;7.70;;;3.17;;
71125;SDS011;58785;55.566;38.058;2022-08-19T09:57:36;10.80;;;3.53;;
71125;SDS011;58785;55.566;38.058;2022-08-19T10:00:07;6.10;;;3.05;;
71125;SDS011;58785;55.566;38.058;2022-08-19T10:02:34;8.38;;;3.15;;
71125;SDS011;58785;55.566;38.058;2022-08-19T10:05:00;7.53;;;3.37;;
71125;SDS011;58785;55.566;38.058;2022-08-19T10:07:45;8.70;;;2.90;;
71125;SDS011;58785;55.566;38.058;2022-08-19T10:10:11;8.63;;;3.58;;
71125;SDS011;58785;55.566;38.058;2022-08-19T10:12:37;10.38;;;3.97;;
71125;SDS011;58785;55.566;38.058;2022-08-19T10:15:03;10.03;;;3.23;;
71125;SDS011;58785;55.566;38.058;2022-08-19T10:17:30;6.95;;;3.08;;
71125;SDS011;58785;55.566;38.058;2022-08-19T10:19:58;6.93;;;3.20;;
71125;SDS011;58785;55.566;38.058;2022-08-19T10:22:24;8.02;;;3.83;;
71125;SDS011;58785;55.566;38.058;2022-08-19T10:24:49;6.63;;;3.10;;
71125;SDS011;58785;55.566;38.058;2022-08-19T10:27:15;9.43;;;4.15;;
71125;SDS011;58785;55.566;38.058;2022-08-19T10:29:40;8.50;;;3.70;;
71125;SDS011;58785;55.566;38.058;2022-08-19T10:32:07;8.23;;;3.63;;
71125;SDS011;58785;55.566;38.058;2022-08-19T10:34:34;9.57;;;3.50;;
71125;SDS011;58785;55.566;38.058;2022-08-19T10:37:04;8.25;;;3.72;;
71125;SDS011;58785;55.566;38.058;2022-08-19T10:39:36;7.43;;;3.60;;
71125;SDS011;58785;55.566;38.058;2022-08-19T10:42:05;12.38;;;4.00;;
71125;SDS011;58785;55.566;38.058;2022-08-19T10:44:33;7.97;;;3.67;;
71125;SDS011;58785;55.566;38.058;2022-08-19T10:47:01;5.95;;;3.53;;
71125;SDS011;58785;55.566;38.058;2022-08-19T10:49:28;6.50;;;3.38;;
71125;SDS011;58785;55.566;38.058;2022-08-19T10:51:54;7.88;;;3.38;;
71125;SDS011;58785;55.566;38.058;2022-08-19T10:54:39;11.15;;;3.75;;
71125;SDS011;58785;55.566;38.058;2022-08-19T10:57:23;8.47;;;3.80;;
71125;SDS011;58785;55.566;38.058;2022-08-19T10:59:55;11.83;;;3.33;;
71125;SDS011;58785;55.566;38.058;2022-08-19T11:02:21;6.50;;;3.95;;
71125;SDS011;58785;55.566;38.058;2022-08-19T11:04:47;7.55;;;3.70;;
71125;SDS011;58785;55.566;38.058;2022-08-19T11:07:15;7.15;;;3.72;;
71125;SDS011;58785;55.566;38.058;2022-08-19T11:09:42;10.85;;;3.80;;
71125;SDS011;58785;55.566;38.058;2022-08-19T11:12:08;7.57;;;3.30;;
71125;SDS011;58785;55.566;38.058;2022-08-19T11:14:35;10.87;;;3.27;;
71125;SDS011;58785;55.566;38.058;2022-08-19T11:17:02;8.10;;;3.17;;
71125;SDS011;58785;55.566;38.058;2022-08-19T11:19:29;8.07;;;3.63;;
71125;SDS011;58785;55.566;38.058;2022-08-19T11:21:55;11.07;;;3.83;;
71125;SDS011;58785;55.566;38.058;2022-08-19T11:24:22;8.00;;;3.45;;
71125;SDS011;58785;55.566;38.058;2022-08-19T11:26:50;15.40;;;3.88;;
71125;SDS011;58785;55.566;38.058;2022-08-19T11:29:22;10.02;;;3.63;;
71125;SDS011;58785;55.566;38.058;2022-08-19T11:31:53;7.27;;;4.03;;
71125;SDS011;58785;55.566;38.058;2022-08-19T11:34:24;11.50;;;3.83;;
71125;SDS011;58785;55.566;38.058;2022-08-19T11:36:52;9.05;;;3.38;;
71125;SDS011;58785;55.566;38.058;2022-08-19T11:39:23;8.27;;;3.00;;
71125;SDS011;58785;55.566;38.058;2022-08-19T11:41:50;10.55;;;4.28;;
71125;SDS011;58785;55.566;38.058;2022-08-19T11:44:16;7.32;;;3.58;;
71125;SDS011;58785;55.566;38.058;2022-08-19T11:46:43;8.73;;;5.13;;
71125;SDS011;58785;55.566;38.058;2022-08-19T11:49:17;15.88;;;5.90;;
71125;SDS011;58785;55.566;38.058;2022-08-19T11:51:44;19.55;;;14.10;;
71125;SDS011;58785;55.566;38.058;2022-08-19T11:54:12;6.47;;;3.37;;
71125;SDS011;58785;55.566;38.058;2022-08-19T11:56:40;24.77;;;10.63;;
71125;SDS011;58785;55.566;38.058;2022-08-19T11:59:06;17.10;;;9.15;;
71125;SDS011;58785;55.566;38.058;2022-08-19T12:01:32;8.20;;;3.70;;
71125;SDS011;58785;55.566;38.058;2022-08-19T12:03:58;7.68;;;2.88;;
71125;SDS011;58785;55.566;38.058;2022-08-19T12:06:26;6.90;;;3.30;;
71125;SDS011;58785;55.566;38.058;2022-08-19T12:08:55;10.38;;;5.13;;
71125;SDS011;58785;55.566;38.058;2022-08-19T12:11:22;12.45;;;5.55;;
71125;SDS011;58785;55.566;38.058;2022-08-19T12:13:49;7.47;;;3.60;;
71125;SDS011;58785;55.566;38.058;2022-08-19T12:16:24;10.73;;;5.77;;
71125;SDS011;58785;55.566;38.058;2022-08-19T12:18:52;8.98;;;3.95;;
71125;SDS011;58785;55.566;38.058;2022-08-19T12:21:21;8.88;;;3.45;;
71125;SDS011;58785;55.566;38.058;2022-08-19T12:23:53;6.78;;;3.28;;
71125;SDS011;58785;55.566;38.058;2022-08-19T12:26:20;10.00;;;3.70;;
71125;SDS011;58785;55.566;38.058;2022-08-19T12:28:47;8.27;;;3.40;;
71125;SDS011;58785;55.566;38.058;2022-08-19T12:31:13;9.98;;;3.80;;
71125;SDS011;58785;55.566;38.058;2022-08-19T12:33:40;8.53;;;2.93;;
71125;SDS011;58785;55.566;38.058;2022-08-19T12:36:08;11.05;;;3.78;;
71125;SDS011;58785;55.566;38.058;2022-08-19T12:38:36;10.82;;;3.92;;
71125;SDS011;58785;55.566;38.058;2022-08-19T12:41:04;9.98;;;4.10;;
71125;SDS011;58785;55.566;38.058;2022-08-19T12:43:35;11.98;;;4.68;;
71125;SDS011;58785;55.566;38.058;2022-08-19T12:46:03;7.03;;;3.00;;
71125;SDS011;58785;55.566;38.058;2022-08-19T12:48:30;10.13;;;3.67;;
71125;SDS011;58785;55.566;38.058;2022-08-19T12:50:56;7.13;;;3.95;;
71125;SDS011;58785;55.566;38.058;2022-08-19T12:53:22;10.18;;;3.85;;
71125;SDS011;58785;55.566;38.058;2022-08-19T12:55:54;7.17;;;3.60;;
71125;SDS011;58785;55.566;38.058;2022-08-19T12:58:21;8.40;;;3.10;;
71125;SDS011;58785;55.566;38.058;2022-08-19T13:00:47;12.40;;;4.95;;
71125;SDS011;58785;55.566;38.058;2022-08-19T13:03:15;7.70;;;4.97;;
71125;SDS011;58785;55.566;38.058;2022-08-19T13:05:41;9.43;;;4.70;;
71125;SDS011;58785;55.566;38.058;2022-08-19T13:08:07;9.45;;;4.65;;
71125;SDS011;58785;55.566;38.058;2022-08-19T13:10:33;7.55;;;4.30;;
71125;SDS011;58785;55.566;38.058;2022-08-19T13:13:00;12.73;;;5.15;;
71125;SDS011;58785;55.566;38.058;2022-08-19T13:15:30;8.75;;;4.88;;
71125;SDS011;58785;55.566;38.058;2022-08-19T13:17:59;13.07;;;5.87;;
71125;SDS011;58785;55.566;38.058;2022-08-19T13:20:25;13.55;;;9.30;;
71125;SDS011;58785;55.566;38.058;2022-08-19T13:22:51;14.15;;;8.02;;
71125;SDS011;58785;55.566;38.058;2022-08-19T13:25:17;12.45;;;6.85;;
71125;SDS011;58785;55.566;38.058;2022-08-19T13:27:45;16.55;;;6.20;;
71125;SDS011;58785;55.566;38.058;2022-08-19T13:30:12;12.48;;;7.30;;
71125;SDS011;58785;55.566;38.058;2022-08-19T13:32:58;13.30;;;8.20;;
71125;SDS011;58785;55.566;38.058;2022-08-19T13:35:40;10.43;;;7.13;;
71125;SDS011;58785;55.566;38.058;2022-08-19T13:38:08;13.88;;;6.55;;
71125;SDS011;58785;55.566;38.058;2022-08-19T13:40:35;11.70;;;5.88;;
71125;SDS011;58785;55.566;38.058;2022-08-19T13:43:02;11.18;;;4.63;;
71125;SDS011;58785;55.566;38.058;2022-08-19T13:45:30;9.45;;;5.50;;
71125;SDS011;58785;55.566;38.058;2022-08-19T13:48:00;13.52;;;7.20;;
71125;SDS011;58785;55.566;38.058;2022-08-19T13:50:31;11.48;;;7.43;;
71125;SDS011;58785;55.566;38.058;2022-08-19T13:52:58;12.38;;;7.90;;
71125;SDS011;58785;55.566;38.058;2022-08-19T13:55:25;21.83;;;10.90;;
71125;SDS011;58785;55.566;38.058;2022-08-19T13:57:52;21.00;;;11.00;;
71125;SDS011;58785;55.566;38.058;2022-08-19T14:00:20;21.63;;;13.52;;
71125;SDS011;58785;55.566;38.058;2022-08-19T14:02:50;33.92;;;20.13;;
71125;SDS011;58785;55.566;38.058;2022-08-19T14:05:17;28.75;;;19.25;;
71125;SDS011;58785;55.566;38.058;2022-08-19T14:07:44;25.25;;;16.55;;
71125;SDS011;58785;55.566;38.058;2022-08-19T14:10:10;21.33;;;13.38;;
71125;SDS011;58785;55.566;38.058;2022-08-19T14:12:37;25.10;;;11.37;;
71125;SDS011;58785;55.566;38.058;2022-08-19T14:15:04;15.77;;;9.90;;
71125;SDS011;58785;55.566;38.058;2022-08-19T14:17:32;18.77;;;10.05;;
71125;SDS011;58785;55.566;38.058;2022-08-19T14:20:00;12.70;;;7.90;;
71125;SDS011;58785;55.566;38.058;2022-08-19T14:22:31;14.52;;;7.47;;
71125;SDS011;58785;55.566;38.058;2022-08-19T14:24:57;14.77;;;6.57;;
71125;SDS011;58785;55.566;38.058;2022-08-19T14:27:23;12.50;;;5.80;;
71125;SDS011;58785;55.566;38.058;2022-08-19T14:29:50;13.63;;;6.18;;
71125;SDS011;58785;55.566;38.058;2022-08-19T14:32:16;11.30;;;5.68;;
71125;SDS011;58785;55.566;38.058;2022-08-19T14:34:42;11.75;;;5.18;;
71125;SDS011;58785;55.566;38.058;2022-08-19T14:37:11;13.30;;;5.85;;
71125;SDS011;58785;55.566;38.058;2022-08-19T14:39:39;9.90;;;5.18;;
71125;SDS011;58785;55.566;38.058;2022-08-19T14:42:08;18.50;;;5.20;;
71125;SDS011;58785;55.566;38.058;2022-08-19T14:44:34;12.98;;;4.80;;
71125;SDS011;58785;55.566;38.058;2022-08-19T14:47:00;10.07;;;4.80;;
71125;SDS011;58785;55.566;38.058;2022-08-19T14:49:26;12.70;;;4.80;;
71125;SDS011;58785;55.566;38.058;2022-08-19T14:51:51;9.52;;;4.47;;